Flight Track Log - Related Links

Times and Time Zones

All times are in EST time to prevent confusion due to time zone crossing. See the EJA749 flight status page for this flight to view local times or setup timezone preferences in your user account.

Time Position Orientation Groundspeed Altitude Reporting Facility
EST Latitude Longitude Course Direction KTS MPH feet Rate Location/Type
Thu 03:21:39 PM 27.2103 -81.9686 North 298 343 14,200  Level Miami Center
Thu 03:22:39 PM 27.3003 -81.9561 North 319 367 16,800 2,350 Climbing Miami Center
Thu 03:23:39 PM 27.3939 -81.9089 24° Northeast 336 387 18,900 2,200 Climbing Miami Center
Thu 03:24:39 PM 27.5128 -81.8508 23° Northeast 393 452 21,200 2,150 Climbing Miami Center
Thu 03:25:39 PM 27.6231 -81.7972 23° Northeast 417 480 23,200 1,950 Climbing Miami Center
Thu 03:26:39 PM 27.7378 -81.7436 22° Northeast 434 499 25,100 1,950 Climbing Miami Center
Thu 03:27:39 PM 27.8569 -81.7322 North 428 493 27,100 1,750 Climbing Miami Center
Thu 03:28:39 PM 27.9803 -81.7233 North 435 501 28,600 1,300 Climbing Miami Center
Thu 03:29:39 PM 28.1100 -81.7125 North 453 521 29,700 1,050 Climbing Miami Center
Thu 03:30:39 PM 28.2439 -81.7017 North 464 534 30,700 1,000 Climbing Miami Center
Thu 03:31:39 PM 28.3800 -81.6889 North 474 545 31,700 1,000 Climbing Miami Center
Thu 03:32:39 PM 28.5181 -81.6758 North 484 557 32,700 992 Climbing Miami Center
Thu 03:33:46 PM 28.6719 -81.6644 North 483 556 33,800 1,087 Climbing Jacksonville Center
Thu 03:34:46 PM 28.7972 -81.6511 North 475 547 35,000 1,250 Climbing Jacksonville Center
Thu 03:35:46 PM 28.9286 -81.6400 North 480 552 36,300 1,250 Climbing Jacksonville Center
Thu 03:36:46 PM 29.0578 -81.6289 North 475 547 37,500 1,200 Climbing Jacksonville Center
Thu 03:37:46 PM 29.1808 -81.6153 North 455 524 38,700 750 Climbing Jacksonville Center
Thu 03:38:46 PM 29.3144 -81.6064 North 443 510 39,000 150 Climbing Jacksonville Center
Thu 03:39:46 PM 29.4394 -81.5953 North 443 510 39,000  Level Jacksonville Center
Thu 03:40:46 PM 29.5583 -81.5842 North 443 510 39,000  Level Jacksonville Center
Thu 03:41:46 PM 29.6792 -81.5731 North 443 510 39,000  Level Jacksonville Center
Thu 03:42:46 PM 29.8003 -81.5594 North 443 510 39,000  Level Jacksonville Center
Thu 03:43:46 PM 29.9128 -81.5506 North 443 510 39,000  Level Jacksonville Center
Thu 03:44:46 PM 30.0339 -81.5394 North 443 510 39,000  Level Jacksonville Center
Thu 03:45:46 PM 30.1589 -81.5256 North 443 510 39,000  Level Jacksonville Center
Thu 03:46:46 PM 30.2800 -81.5142 North 443 510 39,000  Level Jacksonville Center
Thu 03:47:46 PM 30.4031 -81.5028 North 443 510 39,000  Level Jacksonville Center
Thu 03:48:46 PM 30.5261 -81.4867 North 443 510 39,000  Level Jacksonville Center
Thu 03:49:46 PM 30.6469 -81.4703 North 443 510 39,000  Level Jacksonville Center
Thu 03:50:46 PM 30.7694 -81.4153 21° North 443 510 39,000  Level Jacksonville Center
Thu 03:51:46 PM 30.8858 -81.3578 23° Northeast 454 522 39,000  Level Jacksonville Center
Thu 03:52:46 PM 31.0042 -81.3003 23° Northeast 459 528 39,000  Level Jacksonville Center
Thu 03:53:46 PM 31.1264 -81.2447 21° North 459 528 39,000  Level Jacksonville Center
Thu 03:54:46 PM 31.2447 -81.1844 24° Northeast 464 534 39,000  Level Jacksonville Center
Thu 03:55:46 PM 31.3608 -81.1239 24° Northeast 455 524 39,000  Level Jacksonville Center
Thu 03:56:46 PM 31.4936 -81.0581 23° Northeast 455 524 39,000  Level Jacksonville Center
Thu 03:57:46 PM 31.6136 -80.9994 23° Northeast 455 524 39,000  Level Jacksonville Center
Thu 03:58:46 PM 31.7236 -80.9458 23° Northeast 464 534 39,000  Level Jacksonville Center
Thu 03:59:46 PM 31.8542 -80.8797 23° Northeast 469 540 39,000  Level Jacksonville Center
Thu 04:00:46 PM 31.9617 -80.8233 24° Northeast 469 540 39,000  Level Jacksonville Center
Thu 04:01:46 PM 32.0964 -80.7592 22° Northeast 474 545 39,000  Level Jacksonville Center
Thu 04:02:46 PM 32.2039 -80.7050 23° Northeast 468 539 39,000  Level Jacksonville Center
Thu 04:03:46 PM 32.3242 -80.6456 23° Northeast 468 539 39,000  Level Jacksonville Center
Thu 04:04:46 PM 32.4461 -80.5833 23° Northeast 468 539 39,000  Level Jacksonville Center
Thu 04:05:46 PM 32.5661 -80.5236 23° Northeast 473 544 39,000  Level Jacksonville Center
Thu 04:06:46 PM 32.6881 -80.4589 24° Northeast 473 544 39,000  Level Jacksonville Center
Thu 04:07:46 PM 32.8078 -80.3989 23° Northeast 473 544 39,000  Level Jacksonville Center
Thu 04:08:46 PM 32.9278 -80.3386 23° Northeast 473 544 39,000  Level Jacksonville Center
Thu 04:09:46 PM 33.0578 -80.2703 24° Northeast 484 557 39,000  Level Jacksonville Center
Thu 04:10:46 PM 33.1778 -80.2097 23° Northeast 484 557 39,000  Level Jacksonville Center
Thu 04:11:46 PM 33.3139 -80.1411 23° Northeast 478 550 39,000  Level Jacksonville Center
Thu 04:12:46 PM 33.4336 -80.0775 24° Northeast 471 542 39,000  Level Jacksonville Center
Thu 04:13:46 PM 33.5533 -80.0164 23° Northeast 471 542 39,000  Level Jacksonville Center
Thu 04:14:45 PM 33.6750 -79.9528 24° Northeast 471 542 39,000  Level Jacksonville Center
Thu 04:15:46 PM 33.7944 -79.8886 24° Northeast 471 542 39,000  Level Jacksonville Center
Thu 04:16:46 PM 33.9158 -79.8244 24° Northeast 471 542 39,000  Level Jacksonville Center
Thu 04:17:46 PM 34.0333 -79.7653 23° Northeast 471 542 39,000  Level Jacksonville Center
Thu 04:19:23 PM 34.2106 -79.6725 23° Northeast 463 533 39,000  Level Washington Center
Thu 04:20:24 PM 34.3342 -79.6033 25° Northeast 468 539 39,000  Level Washington Center
Thu 04:21:25 PM 34.4550 -79.5411 23° Northeast 468 539 39,000  Level Washington Center
Thu 04:22:23 PM 34.5739 -79.4764 24° Northeast 463 533 39,000  Level Washington Center
Thu 04:23:23 PM 34.6928 -79.4136 23° Northeast 463 533 39,000  Level Washington Center
Thu 04:24:23 PM 34.8139 -79.3486 24° Northeast 463 533 39,000  Level Washington Center
Thu 04:25:24 PM 34.9306 -79.2856 24° Northeast 463 533 39,000  Level Washington Center
Thu 04:26:25 PM 35.0514 -79.2200 24° Northeast 463 533 39,000  Level Washington Center
Thu 04:27:23 PM 35.1725 -79.1569 23° Northeast 463 533 39,000  Level Washington Center
Thu 04:28:23 PM 35.2933 -79.0911 24° Northeast 463 533 39,000  Level Washington Center
Thu 04:29:24 PM 35.4142 -79.0275 23° Northeast 463 533 39,000  Level Washington Center
Thu 04:30:25 PM 35.5347 -78.9614 24° Northeast 463 533 39,000  Level Washington Center
Thu 04:31:23 PM 35.6536 -78.8947 24° Northeast 463 533 39,000  Level Washington Center
Thu 04:32:23 PM 35.7869 -78.8233 23° Northeast 463 533 39,000  Level Washington Center
Thu 04:33:24 PM 35.9078 -78.7539 25° Northeast 463 533 39,000  Level Washington Center
Thu 04:34:24 PM 36.0242 -78.6892 24° Northeast 463 533 39,000  Level Washington Center
Thu 04:35:25 PM 36.1450 -78.6219 24° Northeast 463 533 39,000  Level Washington Center
Thu 04:36:23 PM 36.2614 -78.5569 24° Northeast 463 533 39,000  Level Washington Center
Thu 04:37:24 PM 36.3797 -78.4892 25° Northeast 463 533 39,000  Level Washington Center
Thu 04:38:24 PM 36.4983 -78.4211 25° Northeast 463 533 39,000  Level Washington Center
Thu 04:39:25 PM 36.6144 -78.3556 24° Northeast 463 533 39,000  Level Washington Center
Thu 04:40:23 PM 36.7181 -78.2972 24° Northeast 458 527 39,000  Level Washington Center
Thu 04:41:24 PM 36.8344 -78.2286 25° Northeast 458 527 39,000  Level Washington Center
Thu 04:42:25 PM 36.9569 -78.1572 25° Northeast 458 527 39,000  Level Washington Center
Thu 04:43:23 PM 37.0761 -78.1483 North 442 509 39,000  Level Washington Center
Thu 04:44:24 PM 37.2000 -78.2019 341° North 415 478 39,000  Level Washington Center
Thu 04:45:24 PM 37.3119 -78.2397 345° North 415 478 39,000  Level Washington Center
Thu 04:46:25 PM 37.4336 -78.2019 14° North 424 488 39,000  Level Washington Center
Thu 04:47:23 PM 37.5233 -78.1056 40° Northeast 418 481 39,000  Level Washington Center
Thu 04:48:24 PM 37.6278 -77.9989 39° Northeast 452 520 39,000  Level Washington Center
Thu 04:49:25 PM 37.7278 -77.8892 41° Northeast 471 542 39,000 -101 Level Washington Center
Thu 04:50:23 PM 37.8303 -77.7739 42° Northeast 482 555 38,800 -555 Descending Washington Center
Thu 04:51:24 PM 37.9258 -77.6661 42° Northeast 476 548 37,900 -1,240 Descending Washington Center
Thu 04:52:24 PM 38.0375 -77.6033 24° Northeast 445 512 36,300 -942 Descending Washington Center
Thu 04:53:25 PM 38.1511 -77.5483 21° North 433 498 36,000 -151 Descending Washington Center
Thu 04:54:23 PM 38.2667 -77.4906 21° North 433 498 36,000  Level Washington Center
Thu 04:55:24 PM 38.3864 -77.4300 22° Northeast 444 511 36,000  Level Washington Center
Thu 04:56:25 PM 38.5022 -77.3667 23° Northeast 444 511 36,000  Level Washington Center
Thu 04:57:23 PM 38.6197 -77.3056 22° Northeast 449 517 36,000  Level Washington Center
Thu 04:58:23 PM 38.7431 -77.2844 North 454 522 36,000  Level Washington Center
Thu 04:59:24 PM 38.8525 -77.3483 336° Northwest 416 479 36,000 -198 Level Washington Center
Thu 05:00:24 PM 38.9683 -77.4258 333° Northwest 413 475 35,600 -496 Descending Washington Center
Thu 05:01:25 PM 39.0886 -77.4583 348° North 426 490 35,000 -298 Descending Washington Center
Thu 05:02:25 PM 39.2136 -77.4642 358° North 437 503 35,000  Level Washington Center
Thu 05:03:23 PM 39.3428 -77.4594 North 448 516 35,000  Level Washington Center
Thu 05:04:24 PM 39.4658 -77.4572 North 448 516 35,000  Level Washington Center
Thu 05:06:08 PM 39.6736 -77.4578 360° North 462 532 35,000  Level New York Center
Thu 05:07:08 PM 39.7969 -77.4561 North 462 532 35,000  Level New York Center
Thu 05:08:08 PM 39.9261 -77.4547 360° North 462 532 35,000  Level New York Center
Thu 05:09:08 PM 40.0558 -77.4508 North 462 532 35,000 -800 Level New York Center
Thu 05:10:08 PM 40.1853 -77.4469 North 462 532 33,400 -1,500 Descending New York Center
Thu 05:11:08 PM 40.3189 -77.4436 North 468 539 32,000 -1,200 Descending New York Center
Thu 05:12:08 PM 40.4481 -77.4425 360° North 468 539 31,000 -500 Descending New York Center
Thu 05:13:08 PM 40.5819 -77.4361 North 468 539 31,000  Level New York Center
Thu 05:14:08 PM 40.7111 -77.4350 360° North 468 539 31,000  Level New York Center
Thu 05:15:08 PM 40.8569 -77.4000 10° North 473 544 31,000  Level New York Center
Thu 05:16:08 PM 40.9883 -77.3606 13° North 473 544 31,000  Level New York Center
Thu 05:17:08 PM 41.1089 -77.3281 11° North 473 544 31,000  Level New York Center
Thu 05:18:08 PM 41.2511 -77.2839 13° North 478 550 31,000 -450 Level New York Center
Thu 05:19:08 PM 41.3822 -77.2467 12° North 478 550 30,100 -950 Descending New York Center
Thu 05:20:08 PM 41.4917 -77.1908 21° North 478 550 29,100 -1,050 Descending New York Center
Thu 05:21:08 PM 41.5400 -77.0264 69° East 440 506 28,000 -1,050 Descending New York Center
Thu 05:22:08 PM 41.5244 -76.8419 96° East 437 503 27,000 -500 Descending New York Center
Thu 05:23:08 PM 41.4842 -76.6500 106° East 450 518 27,000  Level New York Center
Thu 05:24:08 PM 41.4431 -76.4664 107° East 481 554 27,000 -100 Level New York Center
Thu 05:25:08 PM 41.4058 -76.2836 105° East 498 573 26,800 -1,150 Descending New York Center
Thu 05:26:08 PM 41.3675 -76.1200 107° East 509 586 24,700 -2,450 Descending New York Center
Thu 05:27:08 PM 41.3294 -75.9458 106° East 509 586 21,900 -2,700 Descending New York Center
Thu 05:28:08 PM 41.2911 -75.7717 106° East 500 575 19,300 -2,650 Descending New York Center
Thu 05:29:08 PM 41.2439 -75.6025 110° East 461 531 16,600 -2,450 Descending New York Center
Thu 05:30:08 PM 41.2033 -75.4783 113° Southeast 413 475 14,400 -2,200 Descending New York Center
Thu 05:31:08 PM 41.1583 -75.3456 114° Southeast 400 460 12,200 -2,200 Descending New York Center
Thu 05:32:08 PM 41.1153 -75.2189 114° Southeast 371 427 10,000 -1,950 Descending New York Center
Thu 05:33:08 PM 41.0778 -75.1089 114° Southeast 322 371 8,300 -1,650 Descending New York Center
Thu 05:34:08 PM 41.0419 -75.0078 115° Southeast 313 360 6,700 -1,150 Descending New York Center
Thu 05:35:08 PM 41.0417 -74.8947 90° East 300 345 6,000 -800 Descending New York Center
Thu 05:36:08 PM 41.0414 -74.7819 90° East 300 345 5,100 -1,000 Descending New York Center
Thu 05:37:08 PM 41.0389 -74.6719 92° East 300 345 4,000 -900 Descending New York Center
Thu 05:38:08 PM 41.0361 -74.5644 92° East 293 337 3,300 -500 Descending New York Center
Thu 05:39:08 PM 41.0350 -74.4708 91° East 288 331 3,000 -150 Descending New York Center
Thu 05:40:08 PM 41.0322 -74.3581 92° East 288 331 3,000 -400 Level New York Center
Thu 05:41:08 PM 41.0114 -74.2825 110° East 260 299 2,200 -500 Descending New York Center
Thu 05:42:08 PM 40.9828 -74.1986 114° Southeast 228 262 2,000 -150 Descending New York Center
Thu 05:43:08 PM 40.9575 -74.1369 118° Southeast 201 231 1,900 -250 Descending New York Center
Thu 05:44:08 PM 40.9361 -74.0808 117° Southeast 185 213 1,500 -550 Descending New York Center
Thu 05:45:08 PM 40.8972 -74.0597 158° South 142 163 800 -650 Descending New York Center
Thu 05:46:08 PM 40.8658 -74.0611 182° South 129 148 200 8,600 Descending New York Center
Thu 05:47:08 PM 40.8264 -74.0564 175° South 129 148 18,000 17,800 Climbing New York Center

Login

Don't have an account? Register now (free) for customized features, flight alerts, and more!